createdAt,value
2023-05-04T00:00:24.223Z,11.900
2023-05-04T00:01:23.336Z,11.200
2023-05-04T00:02:23.611Z,10.600
2023-05-04T00:03:24.624Z,11.600
2023-05-04T00:04:24.844Z,10.900
2023-05-04T00:05:24.105Z,12.100
2023-05-04T00:06:24.231Z,11.500
2023-05-04T00:07:23.366Z,10.700
2023-05-04T00:08:23.547Z,12.000
2023-05-04T00:09:23.788Z,12.100
2023-05-04T00:10:24.469Z,10.800
2023-05-04T00:11:23.544Z,11.400
2023-05-04T00:12:23.852Z,11.300
2023-05-04T00:13:24.321Z,11.400
2023-05-04T00:14:23.476Z,11.200
2023-05-04T00:15:23.624Z,13.200
2023-05-04T00:16:26.915Z,11.900
2023-05-04T00:18:23.699Z,12.200
2023-05-04T00:19:23.831Z,11.500
2023-05-04T00:20:24.149Z,12.500
2023-05-04T00:21:23.238Z,11.900
2023-05-04T00:22:23.332Z,12.400
2023-05-04T00:23:23.704Z,12.500
2023-05-04T00:24:23.855Z,12.500
2023-05-04T00:25:24.018Z,12.200
2023-05-04T00:26:24.276Z,12.700
2023-05-04T00:27:23.389Z,12.200
2023-05-04T00:28:23.639Z,12.300
2023-05-04T00:29:23.817Z,12.700
2023-05-04T00:30:24.204Z,12.700
2023-05-04T00:32:23.997Z,12.300
2023-05-04T00:33:24.773Z,12.700
2023-05-04T00:34:23.956Z,13.100
2023-05-04T00:35:24.159Z,12.800
2023-05-04T00:36:23.227Z,12.600
2023-05-04T00:37:23.379Z,12.500
2023-05-04T00:38:23.542Z,12.200
2023-05-04T00:39:23.629Z,13.500
2023-05-04T00:40:24.048Z,14.100
2023-05-04T00:41:24.229Z,12.600
2023-05-04T00:42:23.332Z,12.300
2023-05-04T00:43:23.544Z,12.700
2023-05-04T00:44:24.637Z,12.600
2023-05-04T00:45:24.818Z,14.400
2023-05-04T00:46:25.130Z,14.300
2023-05-04T00:47:24.870Z,14.900
2023-05-04T00:48:24.412Z,14.100
2023-05-04T00:49:24.816Z,13.700
2023-05-04T00:50:24.987Z,13.800
2023-05-04T00:51:24.165Z,13.300
2023-05-04T00:52:24.373Z,12.200
2023-05-04T00:53:24.512Z,12.000
2023-05-04T00:54:24.772Z,12.700
2023-05-04T00:55:24.961Z,12.100
2023-05-04T00:56:24.152Z,11.700
2023-05-04T00:57:24.403Z,13.400
2023-05-04T00:58:24.543Z,13.200
2023-05-04T00:59:24.765Z,13.500
2023-05-04T01:00:25.375Z,12.900
2023-05-04T01:01:24.416Z,13.000
2023-05-04T01:02:24.631Z,12.800
2023-05-04T01:03:25.135Z,12.900
2023-05-04T01:04:24.560Z,12.700
2023-05-04T01:05:24.320Z,12.600
2023-05-04T01:07:23.942Z,12.800
2023-05-04T01:08:24.804Z,13.000
2023-05-04T01:09:24.444Z,12.800
2023-05-04T01:10:24.295Z,13.700
2023-05-04T01:11:23.494Z,13.900
2023-05-04T01:12:23.668Z,13.400
2023-05-04T01:13:23.904Z,12.400
2023-05-04T01:14:24.034Z,13.100
2023-05-04T01:15:24.235Z,12.000
2023-05-04T01:16:23.457Z,12.100
2023-05-04T01:17:23.886Z,13.200
2023-05-04T01:18:24.492Z,12.500
2023-05-04T01:19:23.561Z,12.900
2023-05-04T01:20:24.066Z,13.400
2023-05-04T01:21:23.273Z,13.800
2023-05-04T01:22:23.444Z,13.600
2023-05-04T01:23:23.694Z,13.700
2023-05-04T01:24:23.982Z,13.500
2023-05-04T01:25:24.125Z,13.500
2023-05-04T01:26:24.275Z,13.300
2023-05-04T01:27:23.493Z,13.100
2023-05-04T01:28:23.709Z,13.300
2023-05-04T01:29:23.871Z,12.200
2023-05-04T01:30:24.306Z,14.600
2023-05-04T01:31:23.701Z,12.500
2023-05-04T01:32:24.272Z,12.800
2023-05-04T01:33:23.520Z,13.600
2023-05-04T01:34:23.662Z,13.900
2023-05-04T01:35:23.852Z,14.000
2023-05-04T01:36:24.069Z,13.000
2023-05-04T01:37:23.289Z,12.800
2023-05-04T01:38:23.724Z,12.700
2023-05-04T01:39:23.917Z,13.700
2023-05-04T01:40:24.142Z,13.700
2023-05-04T01:41:23.428Z,14.000
2023-05-04T01:42:23.622Z,14.200
2023-05-04T01:43:23.735Z,13.200
2023-05-04T01:44:23.988Z,13.400
2023-05-04T01:45:24.151Z,12.700
2023-05-04T01:46:24.457Z,13.900
2023-05-04T01:47:23.757Z,14.500
2023-05-04T01:48:26.400Z,13.800
2023-05-04T01:49:24.248Z,13.400
2023-05-04T01:50:23.606Z,13.900
2023-05-04T01:51:23.766Z,13.400
2023-05-04T01:52:24.019Z,13.200
2023-05-04T01:53:24.426Z,13.900
2023-05-04T01:54:23.540Z,14.600
2023-05-04T01:55:23.747Z,13.500
2023-05-04T01:56:23.946Z,13.300
2023-05-04T01:57:24.162Z,13.500
2023-05-04T01:58:23.297Z,13.000
2023-05-04T01:59:23.386Z,12.700
2023-05-04T02:00:24.107Z,13.400
2023-05-04T02:01:23.367Z,13.400
2023-05-04T02:02:23.769Z,13.700
2023-05-04T02:03:24.356Z,13.800
2023-05-04T02:04:23.768Z,13.700
2023-05-04T02:05:23.979Z,13.200
2023-05-04T02:06:24.255Z,13.500
2023-05-04T02:07:23.377Z,13.300
2023-05-04T02:08:23.613Z,13.500
2023-05-04T02:09:23.866Z,13.500
2023-05-04T02:10:24.202Z,14.400
2023-05-04T02:11:23.332Z,13.600
2023-05-04T02:12:23.489Z,14.000
2023-05-04T02:13:23.866Z,13.200
2023-05-04T02:14:24.014Z,13.000
2023-05-04T02:15:24.136Z,12.900
2023-05-04T02:16:23.518Z,14.100
2023-05-04T02:17:23.973Z,14.500
2023-05-04T02:18:24.376Z,13.300
2023-05-04T02:19:23.631Z,12.000
2023-05-04T02:20:24.349Z,12.100
2023-05-04T02:21:23.460Z,13.500
2023-05-04T02:22:23.588Z,13.400
2023-05-04T02:23:23.769Z,13.300
2023-05-04T02:24:23.976Z,12.900
2023-05-04T02:25:24.151Z,12.200
2023-05-04T02:26:23.259Z,14.800
2023-05-04T02:27:23.389Z,14.400
2023-05-04T02:28:23.587Z,13.400
2023-05-04T02:29:24.021Z,13.500
2023-05-04T02:30:24.487Z,13.700
2023-05-04T02:31:23.845Z,13.300
2023-05-04T02:32:24.607Z,12.900
2023-05-04T02:33:24.089Z,12.800
2023-05-04T02:34:24.316Z,13.500
2023-05-04T02:35:23.481Z,12.800
2023-05-04T02:36:23.637Z,14.300
2023-05-04T02:37:24.841Z,14.600
2023-05-04T02:38:23.944Z,14.200
2023-05-04T02:39:24.123Z,13.600
2023-05-04T02:40:24.656Z,13.600
2023-05-04T02:41:23.852Z,12.600
2023-05-04T02:42:24.089Z,13.400
2023-05-04T02:43:24.600Z,13.700
2023-05-04T02:44:23.732Z,14.200
2023-05-04T02:45:24.019Z,13.100
2023-05-04T02:46:24.844Z,13.500
2023-05-04T02:47:24.141Z,13.500
2023-05-04T02:48:23.365Z,13.700
2023-05-04T02:49:23.500Z,14.100
2023-05-04T02:50:24.486Z,14.100
2023-05-04T02:51:23.610Z,13.600
2023-05-04T02:52:23.794Z,14.700
2023-05-04T02:53:23.927Z,13.700
2023-05-04T02:54:24.168Z,13.500
2023-05-04T02:55:23.274Z,13.400
2023-05-04T02:56:23.472Z,14.000
2023-05-04T02:57:23.663Z,13.600
2023-05-04T02:58:23.792Z,12.900
2023-05-04T02:59:24.010Z,15.100
2023-05-04T03:00:24.615Z,14.500
2023-05-04T03:01:24.059Z,13.700
2023-05-04T03:02:23.225Z,13.100
2023-05-04T03:03:23.661Z,13.900
2023-05-04T03:04:24.033Z,14.400
2023-05-04T03:05:24.257Z,13.900
2023-05-04T03:06:23.432Z,14.700
2023-05-04T03:07:23.552Z,14.600
2023-05-04T03:08:23.672Z,15.300
2023-05-04T03:09:23.864Z,14.000
2023-05-04T03:10:24.384Z,13.600
2023-05-04T03:11:23.530Z,14.200
2023-05-04T03:12:23.696Z,14.900
2023-05-04T03:13:23.936Z,14.700
2023-05-04T03:14:24.112Z,15.000
2023-05-04T03:15:23.331Z,15.200
2023-05-04T03:16:23.708Z,14.600
2023-05-04T03:17:24.175Z,14.400
2023-05-04T03:18:23.430Z,14.700
2023-05-04T03:19:23.575Z,13.900
2023-05-04T03:20:24.245Z,14.700
2023-05-04T03:21:23.410Z,14.300
2023-05-04T03:22:23.597Z,14.800
2023-05-04T03:23:23.828Z,15.000
2023-05-04T03:24:24.053Z,13.400
2023-05-04T03:25:24.282Z,14.700
2023-05-04T03:26:23.549Z,16.300
2023-05-04T03:27:23.680Z,15.200
2023-05-04T03:28:23.767Z,15.800
2023-05-04T03:29:23.946Z,13.600
2023-05-04T03:30:24.578Z,13.900
2023-05-04T03:31:23.820Z,14.700
2023-05-04T03:32:24.968Z,13.400
2023-05-04T03:34:23.661Z,14.400
2023-05-04T03:35:26.669Z,14.300
2023-05-04T03:37:23.974Z,14.500
2023-05-04T03:38:24.156Z,13.900
2023-05-04T03:39:23.344Z,15.500
2023-05-04T03:40:23.890Z,15.700
2023-05-04T03:41:24.052Z,15.400
2023-05-04T03:42:24.184Z,13.500
2023-05-04T03:43:23.367Z,14.500
2023-05-04T03:44:23.563Z,13.100
2023-05-04T03:45:23.688Z,14.000
2023-05-04T03:46:24.206Z,14.200
2023-05-04T03:47:23.440Z,14.700
2023-05-04T03:48:23.783Z,13.600
2023-05-04T03:49:23.945Z,15.000
2023-05-04T03:50:24.753Z,15.300
2023-05-04T03:51:23.827Z,13.400
2023-05-04T03:52:23.999Z,14.500
2023-05-04T03:53:24.162Z,14.000
2023-05-04T03:54:23.285Z,14.500
2023-05-04T03:55:23.409Z,14.300
2023-05-04T03:56:23.604Z,14.000
2023-05-04T03:57:23.833Z,14.200
2023-05-04T03:58:23.988Z,14.900
2023-05-04T03:59:24.148Z,14.700
2023-05-04T04:00:24.019Z,14.900
2023-05-04T04:01:24.196Z,14.500
2023-05-04T04:02:23.754Z,13.500
2023-05-04T04:03:24.826Z,13.300
2023-05-04T04:05:23.696Z,14.300
2023-05-04T04:06:23.901Z,13.000
2023-05-04T04:07:24.100Z,14.300
2023-05-04T04:08:24.304Z,14.000
2023-05-04T04:09:23.562Z,13.700
2023-05-04T04:10:24.093Z,14.700
2023-05-04T04:11:24.287Z,14.800
2023-05-04T04:12:23.389Z,14.400
2023-05-04T04:13:23.796Z,14.400
2023-05-04T04:14:24.151Z,13.500
2023-05-04T04:15:23.296Z,14.400
2023-05-04T04:16:23.679Z,15.000
2023-05-04T04:17:24.077Z,14.100
2023-05-04T04:18:23.389Z,13.400
2023-05-04T04:19:23.595Z,13.500
2023-05-04T04:20:24.242Z,13.400
2023-05-04T04:21:23.393Z,13.800
2023-05-04T04:22:23.868Z,13.600
2023-05-04T04:23:24.031Z,13.800
2023-05-04T04:24:24.196Z,12.500
2023-05-04T04:25:23.561Z,13.200
2023-05-04T04:26:23.883Z,13.600
2023-05-04T04:27:24.061Z,13.200
2023-05-04T04:28:24.239Z,13.700
2023-05-04T04:29:23.353Z,13.300
2023-05-04T04:30:23.830Z,13.300
2023-05-04T04:31:24.041Z,12.700
2023-05-04T04:32:24.508Z,12.900
2023-05-04T04:33:23.995Z,13.500
2023-05-04T04:34:24.196Z,12.700
2023-05-04T04:35:23.296Z,12.500
2023-05-04T04:36:23.444Z,13.400
2023-05-04T04:37:23.557Z,14.100
2023-05-04T04:38:23.709Z,13.800
2023-05-04T04:39:23.971Z,12.400
2023-05-04T04:40:24.313Z,12.400
2023-05-04T04:41:23.490Z,12.700
2023-05-04T04:42:23.681Z,13.500
2023-05-04T04:43:23.948Z,12.900
2023-05-04T04:44:24.158Z,12.900
2023-05-04T04:45:23.315Z,13.600
2023-05-04T04:46:23.583Z,13.100
2023-05-04T04:47:24.105Z,12.000
2023-05-04T04:48:23.513Z,12.800
2023-05-04T04:49:23.744Z,12.200
2023-05-04T04:50:24.249Z,12.200
2023-05-04T04:51:23.444Z,12.000
2023-05-04T04:52:23.906Z,12.400
2023-05-04T04:53:24.102Z,12.900
2023-05-04T04:54:24.252Z,12.400
2023-05-04T04:55:23.943Z,12.600
2023-05-04T04:56:24.204Z,13.500
2023-05-04T04:57:23.638Z,13.100
2023-05-04T04:58:23.722Z,13.400
2023-05-04T04:59:23.908Z,12.200
2023-05-04T05:00:24.369Z,12.700
2023-05-04T05:01:23.770Z,13.700
2023-05-04T05:02:23.913Z,13.500
2023-05-04T05:03:24.304Z,12.300
2023-05-04T05:04:23.630Z,14.000
2023-05-04T05:05:24.089Z,13.500
2023-05-04T05:06:24.233Z,13.500
2023-05-04T05:07:23.365Z,12.800
2023-05-04T05:08:23.568Z,13.900
2023-05-04T05:09:23.764Z,12.900
2023-05-04T05:10:24.521Z,14.200
2023-05-04T05:11:23.634Z,13.700
2023-05-04T05:12:23.880Z,12.800
2023-05-04T05:13:24.239Z,12.700
2023-05-04T05:14:23.344Z,12.900
2023-05-04T05:15:23.515Z,13.000
2023-05-04T05:16:23.811Z,13.500
2023-05-04T05:17:24.424Z,13.600
2023-05-04T05:18:23.779Z,13.900
2023-05-04T05:19:23.957Z,13.300
2023-05-04T05:20:24.277Z,13.600
2023-05-04T05:21:23.417Z,13.300
2023-05-04T05:22:23.567Z,14.200
2023-05-04T05:23:23.785Z,12.700
2023-05-04T05:24:23.914Z,13.300
2023-05-04T05:25:24.112Z,13.600
2023-05-04T05:26:24.285Z,12.900
2023-05-04T05:27:23.353Z,13.200
2023-05-04T05:28:23.473Z,13.200
2023-05-04T05:29:23.695Z,12.300
2023-05-04T05:30:24.249Z,12.500
2023-05-04T05:31:23.865Z,12.800
2023-05-04T05:32:24.045Z,12.100
2023-05-04T05:33:24.441Z,12.100
2023-05-04T05:34:23.648Z,12.200
2023-05-04T05:35:23.769Z,12.600
2023-05-04T05:36:23.942Z,12.000
2023-05-04T05:37:24.164Z,12.600
2023-05-04T05:38:23.431Z,12.400
2023-05-04T05:39:23.571Z,12.300
2023-05-04T05:40:24.136Z,12.000
2023-05-04T05:41:23.203Z,11.500
2023-05-04T05:42:23.428Z,11.800
2023-05-04T05:43:23.812Z,12.500
2023-05-04T05:45:24.289Z,12.400
2023-05-04T05:46:23.577Z,12.400
2023-05-04T05:47:23.920Z,12.400
2023-05-04T05:48:24.433Z,11.700
2023-05-04T05:49:23.619Z,11.800
2023-05-04T05:50:24.400Z,11.900
2023-05-04T05:51:23.832Z,11.700
2023-05-04T05:52:23.913Z,12.500
2023-05-04T05:53:24.177Z,12.500
2023-05-04T05:54:23.282Z,12.000
2023-05-04T05:55:23.449Z,13.300
2023-05-04T05:56:23.697Z,11.800
2023-05-04T05:57:23.847Z,10.600
2023-05-04T05:58:24.012Z,10.800
2023-05-04T05:59:24.192Z,10.000
2023-05-04T06:00:23.790Z,10.000
2023-05-04T06:01:24.245Z,10.300
2023-05-04T06:02:23.789Z,9.600
2023-05-04T06:03:24.740Z,10.900
2023-05-04T06:04:25.002Z,10.800
2023-05-04T06:06:23.588Z,9.200
2023-05-04T06:07:23.808Z,9.500
2023-05-04T06:08:24.060Z,9.800
2023-05-04T06:09:24.230Z,9.700
2023-05-04T06:10:24.144Z,9.300
2023-05-04T06:12:23.533Z,10.000
2023-05-04T06:13:24.003Z,9.100
2023-05-04T06:14:24.237Z,9.100
2023-05-04T06:15:23.407Z,9.600
2023-05-04T06:16:23.742Z,9.600
2023-05-04T06:17:24.252Z,9.300
2023-05-04T06:18:23.508Z,9.600
2023-05-04T06:19:23.748Z,9.000
2023-05-04T06:20:25.573Z,9.000
2023-05-04T06:22:23.771Z,9.500
2023-05-04T06:23:24.064Z,8.500
2023-05-04T06:24:24.212Z,8.100
2023-05-04T06:25:25.512Z,9.300
2023-05-04T06:27:25.886Z,8.800
2023-05-04T06:28:23.989Z,8.800
2023-05-04T06:29:24.228Z,8.600
2023-05-04T06:30:24.166Z,9.200
2023-05-04T06:31:23.388Z,9.100
2023-05-04T06:32:23.808Z,9.200
2023-05-04T06:33:24.646Z,8.900
2023-05-04T06:34:23.883Z,9.000
2023-05-04T06:35:24.123Z,8.500
2023-05-04T06:36:24.335Z,9.300
2023-05-04T06:37:23.528Z,8.500
2023-05-04T06:38:23.684Z,9.400
2023-05-04T06:39:23.895Z,8.500
2023-05-04T06:40:24.596Z,8.100
2023-05-04T06:41:24.230Z,8.500
2023-05-04T06:42:23.495Z,8.100
2023-05-04T06:43:23.704Z,8.300
2023-05-04T06:44:23.942Z,8.700
2023-05-04T06:45:24.298Z,8.000
2023-05-04T06:46:23.541Z,8.900
2023-05-04T06:47:23.971Z,9.100
2023-05-04T06:48:24.290Z,8.400
2023-05-04T06:49:23.443Z,7.800
2023-05-04T06:50:23.749Z,8.400
2023-05-04T06:51:24.033Z,8.000
2023-05-04T06:52:24.357Z,8.600
2023-05-04T06:53:23.515Z,8.700
2023-05-04T06:54:23.760Z,8.800
2023-05-04T06:55:23.910Z,8.100
2023-05-04T06:56:24.076Z,8.400
2023-05-04T06:57:24.333Z,9.200
2023-05-04T06:58:23.504Z,9.300
2023-05-04T06:59:24.380Z,8.800
2023-05-04T07:00:23.467Z,8.800
2023-05-04T07:01:23.924Z,8.500
2023-05-04T07:02:24.497Z,8.800
2023-05-04T07:03:23.954Z,8.800
2023-05-04T07:04:24.896Z,8.500
2023-05-04T07:05:24.004Z,8.500
2023-05-04T07:06:24.224Z,8.400
2023-05-04T07:07:23.303Z,8.100
2023-05-04T07:08:25.938Z,8.400
2023-05-04T07:10:23.537Z,7.900
2023-05-04T07:11:24.291Z,8.000
2023-05-04T07:12:23.331Z,8.100
2023-05-04T07:13:23.803Z,8.800
2023-05-04T07:14:27.045Z,8.100
2023-05-04T07:16:23.642Z,8.100
2023-05-04T07:17:24.060Z,8.000
2023-05-04T07:18:24.365Z,8.400
2023-05-04T07:19:23.524Z,7.700
2023-05-04T07:20:27.569Z,8.400
2023-05-04T07:21:30.710Z,8.300
2023-05-04T07:23:23.320Z,8.600
2023-05-04T07:24:23.384Z,8.500
2023-05-04T07:25:23.748Z,8.100
2023-05-04T07:26:24.678Z,8.300
2023-05-04T07:27:23.864Z,8.200
2023-05-04T07:28:23.912Z,8.300
2023-05-04T07:29:24.045Z,8.200
2023-05-04T07:30:24.552Z,8.300
2023-05-04T07:31:23.923Z,8.700
2023-05-04T07:32:24.012Z,8.300
2023-05-04T07:33:23.484Z,8.300
2023-05-04T07:34:38.119Z,7.300
2023-05-04T07:36:27.349Z,8.100
2023-05-04T07:37:26.489Z,8.400
2023-05-04T07:38:26.692Z,7.700
2023-05-04T07:39:27.018Z,8.600
2023-05-04T07:40:27.491Z,8.200
2023-05-04T07:41:26.765Z,8.200
2023-05-04T07:42:26.971Z,7.200
2023-05-04T07:43:27.160Z,7.400
2023-05-04T07:44:26.592Z,8.300
2023-05-04T07:45:26.749Z,8.200
2023-05-04T07:46:27.283Z,8.000
2023-05-04T07:47:26.551Z,7.500
2023-05-04T07:48:28.248Z,7.300
2023-05-04T07:49:26.391Z,7.700
2023-05-04T07:50:26.744Z,6.500
2023-05-04T07:51:26.917Z,7.700
2023-05-04T07:52:27.219Z,7.700
2023-05-04T07:53:26.437Z,7.300
2023-05-04T07:54:26.648Z,7.900
2023-05-04T07:55:26.952Z,8.000
2023-05-04T07:56:27.143Z,7.100
2023-05-04T07:57:26.626Z,7.200
2023-05-04T07:58:26.890Z,7.900
2023-05-04T07:59:27.401Z,7.700
2023-05-04T08:00:26.595Z,7.400
2023-05-04T08:01:26.875Z,6.600
2023-05-04T08:02:27.975Z,6.800
2023-05-04T08:03:27.408Z,7.000
2023-05-04T08:04:26.527Z,7.100
2023-05-04T08:05:26.794Z,7.500
2023-05-04T08:06:27.048Z,7.300
2023-05-04T08:07:27.206Z,7.000
2023-05-04T08:08:26.548Z,7.300
2023-05-04T08:09:27.675Z,8.000
2023-05-04T08:10:26.937Z,7.100
2023-05-04T08:11:32.017Z,7.400
2023-05-04T08:13:26.688Z,7.300
2023-05-04T08:14:27.385Z,7.700
2023-05-04T08:15:26.510Z,6.800
2023-05-04T08:16:26.741Z,7.200
2023-05-04T08:17:26.934Z,7.000
2023-05-04T08:18:27.552Z,7.400
2023-05-04T08:19:26.729Z,7.900
2023-05-04T08:20:27.060Z,7.000
2023-05-04T08:21:27.286Z,7.000
2023-05-04T08:22:26.437Z,7.400
2023-05-04T08:23:26.760Z,7.400
2023-05-04T08:24:27.084Z,7.700
2023-05-04T08:25:27.389Z,7.900
2023-05-04T08:26:26.585Z,8.100
2023-05-04T08:27:31.973Z,7.800
2023-05-04T08:28:27.139Z,7.600
2023-05-04T08:29:27.304Z,7.600
2023-05-04T08:30:26.464Z,7.500
2023-05-04T08:31:26.981Z,7.700
2023-05-04T08:32:26.453Z,7.800
2023-05-04T08:33:26.950Z,7.700
2023-05-04T08:34:27.260Z,7.300
2023-05-04T08:35:26.543Z,7.400
2023-05-04T08:36:26.877Z,7.500
2023-05-04T08:37:27.390Z,7.800
2023-05-04T08:38:26.927Z,7.500
2023-05-04T08:39:27.196Z,7.400
2023-05-04T08:40:26.445Z,7.800
2023-05-04T08:41:26.812Z,7.400
2023-05-04T08:42:27.032Z,7.200
2023-05-04T08:43:27.298Z,7.200
2023-05-04T08:44:26.481Z,8.400
2023-05-04T08:45:26.707Z,7.400
2023-05-04T08:46:27.254Z,7.800
2023-05-04T08:47:26.473Z,7.800
2023-05-04T08:48:26.789Z,7.100
2023-05-04T08:49:26.941Z,7.600
2023-05-04T08:50:27.247Z,7.400
2023-05-04T08:51:26.459Z,7.500
2023-05-04T08:52:26.769Z,7.800
2023-05-04T08:53:27.051Z,7.100
2023-05-04T08:54:27.350Z,7.200
2023-05-04T08:55:26.601Z,7.100
2023-05-04T08:56:26.962Z,7.100
2023-05-04T08:57:27.481Z,6.900
2023-05-04T08:58:26.779Z,7.600
2023-05-04T08:59:27.407Z,6.700
2023-05-04T09:00:26.738Z,7.300
2023-05-04T09:01:28.584Z,7.300
2023-05-04T09:02:27.284Z,6.800
2023-05-04T09:03:26.772Z,6.900
2023-05-04T09:04:30.591Z,7.500
2023-05-04T09:05:26.776Z,7.500
2023-05-04T09:06:27.065Z,6.800
2023-05-04T09:07:27.561Z,6.600
2023-05-04T09:08:26.747Z,6.500
2023-05-04T09:09:27.021Z,7.100
2023-05-04T09:10:29.884Z,6.600
2023-05-04T09:11:27.369Z,7.400
2023-05-04T09:12:26.568Z,7.300
2023-05-04T09:13:27.104Z,7.300
2023-05-04T09:14:27.218Z,7.600
2023-05-04T09:15:26.410Z,6.900
2023-05-04T09:16:29.104Z,6.800
2023-05-04T09:18:31.581Z,6.800
2023-05-04T09:19:26.685Z,7.100
2023-05-04T09:20:26.933Z,6.700
2023-05-04T09:21:27.265Z,7.100
2023-05-04T09:22:28.776Z,6.100
2023-05-04T09:23:27.382Z,6.300
2023-05-04T09:24:26.681Z,6.700
2023-05-04T09:25:26.948Z,5.800
2023-05-04T09:26:27.223Z,6.300
2023-05-04T09:27:26.510Z,5.800
2023-05-04T09:28:29.197Z,6.600
2023-05-04T09:29:26.291Z,6.500
2023-05-04T09:30:26.476Z,6.500
2023-05-04T09:31:27.195Z,6.600
2023-05-04T09:32:26.680Z,6.700
2023-05-04T09:33:26.909Z,6.200
2023-05-04T09:34:28.252Z,6.200
2023-05-04T09:35:35.573Z,6.900
2023-05-04T09:37:26.914Z,6.300
2023-05-04T09:38:27.523Z,6.200
2023-05-04T09:39:28.520Z,5.700
2023-05-04T09:41:27.248Z,6.900
2023-05-04T09:42:26.386Z,6.100
2023-05-04T09:43:26.762Z,6.300
2023-05-04T09:44:30.356Z,6.200
2023-05-04T09:45:26.656Z,6.400
2023-05-04T09:46:27.165Z,7.300
2023-05-04T09:47:26.384Z,7.600
2023-05-04T09:48:26.807Z,7.000
2023-05-04T09:49:27.092Z,7.200
2023-05-04T09:50:27.307Z,6.800
2023-05-04T09:51:26.716Z,7.100
2023-05-04T09:52:26.981Z,7.400
2023-05-04T09:53:27.197Z,7.000
2023-05-04T09:54:26.342Z,6.500
2023-05-04T09:55:26.452Z,6.200
2023-05-04T09:56:26.765Z,6.300
2023-05-04T09:57:27.011Z,7.200
2023-05-04T09:58:27.224Z,6.400
2023-05-04T09:59:26.427Z,6.700
2023-05-04T10:00:27.140Z,6.100
2023-05-04T10:01:26.369Z,6.000
2023-05-04T10:02:31.701Z,6.600
2023-05-04T10:04:26.617Z,7.600
2023-05-04T10:05:26.993Z,7.100
2023-05-04T10:06:27.530Z,6.900
2023-05-04T10:07:26.829Z,7.000
2023-05-04T10:08:26.936Z,6.700
2023-05-04T10:09:27.167Z,6.600
2023-05-04T10:10:26.289Z,7.000
2023-05-04T10:11:26.452Z,7.100
2023-05-04T10:12:26.622Z,6.300
2023-05-04T10:13:26.964Z,7.100
2023-05-04T10:14:27.162Z,7.200
2023-05-04T10:15:26.250Z,6.600
2023-05-04T10:16:26.936Z,5.800
2023-05-04T10:17:29.648Z,6.000
2023-05-04T10:19:27.249Z,5.600
2023-05-04T10:20:26.381Z,6.600
2023-05-04T10:21:26.631Z,6.900
2023-05-04T10:22:26.829Z,7.100
2023-05-04T10:23:27.041Z,6.500
2023-05-04T10:24:27.200Z,6.500
2023-05-04T10:25:26.393Z,6.100
2023-05-04T10:26:26.722Z,6.000
2023-05-04T10:27:27.024Z,5.700
2023-05-04T10:28:27.240Z,5.600
2023-05-04T10:29:26.307Z,5.900
2023-05-04T10:30:26.510Z,5.200
2023-05-04T10:31:26.861Z,5.400
2023-05-04T10:32:27.318Z,6.300
2023-05-04T10:33:26.545Z,7.000
2023-05-04T10:34:26.741Z,6.500
2023-05-04T10:35:26.971Z,6.700
2023-05-04T10:36:27.369Z,6.800
2023-05-04T10:37:26.497Z,7.000
2023-05-04T10:38:26.672Z,7.100
2023-05-04T10:39:26.816Z,7.000
2023-05-04T10:40:27.103Z,6.300
2023-05-04T10:41:27.234Z,6.900
2023-05-04T10:42:26.420Z,6.200
2023-05-04T10:43:26.647Z,6.500
2023-05-04T10:44:26.880Z,6.800
2023-05-04T10:45:27.130Z,6.000
2023-05-04T10:46:26.654Z,6.800
2023-05-04T10:47:27.029Z,7.200
2023-05-04T10:48:28.051Z,6.700
2023-05-04T10:49:27.215Z,7.200
2023-05-04T10:50:26.424Z,6.800
2023-05-04T10:51:39.008Z,6.800
2023-05-04T10:53:29.557Z,6.300
2023-05-04T10:54:29.723Z,5.900
2023-05-04T10:55:30.011Z,5.900
2023-05-04T10:56:30.232Z,6.600
2023-05-04T10:57:29.554Z,6.000
2023-05-04T10:58:29.966Z,5.900
2023-05-04T10:59:30.224Z,6.100
2023-05-04T11:00:29.468Z,5.600
2023-05-04T11:01:29.903Z,5.300
2023-05-04T11:02:33.298Z,4.700
2023-05-04T11:03:30.456Z,5.300
2023-05-04T11:04:29.844Z,5.200
2023-05-04T11:05:30.116Z,5.700
2023-05-04T11:06:30.409Z,5.100
2023-05-04T11:07:29.600Z,5.400
2023-05-04T11:08:29.801Z,5.900
2023-05-04T11:09:30.030Z,5.000
2023-05-04T11:10:30.632Z,5.200
2023-05-04T11:11:29.948Z,4.500
2023-05-04T11:12:30.166Z,5.100
2023-05-04T11:13:29.737Z,5.000
2023-05-04T11:14:29.919Z,4.400
2023-05-04T11:15:30.169Z,5.500
2023-05-04T11:16:29.584Z,4.800
2023-05-04T11:17:40.505Z,4.800
2023-05-04T11:19:30.068Z,5.300
2023-05-04T11:20:30.372Z,4.900
2023-05-04T11:21:29.490Z,5.100
2023-05-04T11:22:29.704Z,4.900
2023-05-04T11:23:29.837Z,5.200
2023-05-04T11:24:30.289Z,4.400
2023-05-04T11:25:29.432Z,4.800
2023-05-04T11:26:29.788Z,4.800
2023-05-04T11:27:30.171Z,4.300
2023-05-04T11:28:32.110Z,4.900
2023-05-04T11:32:30.305Z,4.800
2023-05-04T11:33:29.504Z,4.900
2023-05-04T11:34:29.788Z,5.500
2023-05-04T11:35:29.972Z,6.200
2023-05-04T11:36:30.119Z,5.100
2023-05-04T11:37:29.394Z,5.300
2023-05-04T11:38:29.508Z,5.100
2023-05-04T11:39:29.654Z,10.300
2023-05-04T11:40:30.243Z,6.200
2023-05-04T11:41:29.417Z,5.500
2023-05-04T11:42:29.626Z,4.600
2023-05-04T11:43:31.682Z,5.500
2023-05-04T11:44:29.790Z,4.900
2023-05-04T11:45:30.053Z,5.200
2023-05-04T11:46:30.776Z,5.300
2023-05-04T11:47:30.158Z,5.100
2023-05-04T11:48:29.384Z,5.300
2023-05-04T11:49:29.531Z,5.400
2023-05-04T11:50:30.081Z,5.400
2023-05-04T11:51:30.329Z,5.400
2023-05-04T11:52:29.520Z,5.000
2023-05-04T11:53:29.698Z,5.100
2023-05-04T11:54:29.881Z,5.000
2023-05-04T11:55:30.589Z,4.900
2023-05-04T11:56:29.711Z,5.000
2023-05-04T11:57:30.161Z,5.400
2023-05-04T11:58:29.352Z,4.600
2023-05-04T11:59:29.860Z,5.000
2023-05-04T12:00:30.147Z,4.900
2023-05-04T12:01:29.376Z,4.800
2023-05-04T12:02:29.647Z,4.900
2023-05-04T12:03:51.921Z,4.700
2023-05-04T12:05:33.747Z,5.700
2023-05-04T12:06:34.281Z,4.900
2023-05-04T12:07:33.480Z,3.900
2023-05-04T12:08:33.618Z,5.300
2023-05-04T12:09:33.975Z,4.600
2023-05-04T12:10:34.434Z,4.100
2023-05-04T12:11:33.919Z,4.600
2023-05-04T12:12:35.046Z,4.500
2023-05-04T12:14:33.624Z,4.500
2023-05-04T12:15:33.800Z,5.500
2023-05-04T12:16:34.367Z,4.600
2023-05-04T12:17:33.778Z,4.900
2023-05-04T12:18:36.393Z,4.400
2023-05-04T12:20:33.766Z,4.900
2023-05-04T12:21:33.933Z,5.500
2023-05-04T12:22:34.197Z,4.700
2023-05-04T12:23:33.417Z,4.700
2023-05-04T12:24:33.579Z,4.800
2023-05-04T12:25:34.493Z,4.900
2023-05-04T12:26:35.581Z,4.900
2023-05-04T12:29:33.535Z,5.200
2023-05-04T12:30:34.004Z,4.800
2023-05-04T12:31:34.417Z,5.000
2023-05-04T12:32:33.701Z,4.900
2023-05-04T12:33:34.097Z,5.000
2023-05-04T12:34:34.483Z,4.300
2023-05-04T12:35:33.642Z,4.600
2023-05-04T12:36:33.944Z,4.100
2023-05-04T12:37:34.084Z,4.400
2023-05-04T12:38:34.590Z,5.100
2023-05-04T12:39:33.732Z,4.400
2023-05-04T12:40:43.735Z,4.800
2023-05-04T12:42:34.152Z,4.400
2023-05-04T12:43:36.817Z,4.200
2023-05-04T12:45:34.360Z,4.100
2023-05-04T12:46:33.613Z,4.800
2023-05-04T12:47:34.057Z,4.700
2023-05-04T12:48:33.424Z,4.600
2023-05-04T12:49:33.640Z,4.400
2023-05-04T12:50:33.908Z,4.300
2023-05-04T12:51:34.412Z,4.900
2023-05-04T12:52:33.620Z,4.900
2023-05-04T12:53:34.034Z,4.500
2023-05-04T12:54:34.208Z,4.600
2023-05-04T12:55:33.289Z,4.400
2023-05-04T12:56:33.461Z,4.600
2023-05-04T12:57:33.675Z,4.200
2023-05-04T12:58:35.184Z,4.400
2023-05-04T12:59:33.358Z,4.000
2023-05-04T13:00:33.578Z,5.700
2023-05-04T13:01:33.968Z,5.500
2023-05-04T13:02:34.512Z,4.400
2023-05-04T13:03:34.335Z,4.600
2023-05-04T13:04:33.624Z,4.300
2023-05-04T13:05:33.846Z,4.000
2023-05-04T13:06:33.980Z,4.100
2023-05-04T13:07:34.104Z,4.300
2023-05-04T13:09:33.547Z,4.100
2023-05-04T13:10:33.738Z,3.800
2023-05-04T13:11:34.121Z,3.400
2023-05-04T13:12:33.349Z,3.400
2023-05-04T13:13:34.068Z,3.800
2023-05-04T13:14:39.776Z,4.100
2023-05-04T13:15:34.181Z,3.700